Danville, Illinois
Current Conditions -  °F | °C
As of 5:55 AM on Tuesday 21 Oct 2014 (Local Time) from KDNV Reporting Station
Overcast Overcast  
Wind Chill: 48°   Ceiling: 4800
Heat Index: 48°   Visibility: 7mi
Dew Point: 46°   Wind: 3mph
Humidity: 93%   Direction: 310°NW
Pressure: 30.03"   Gusts: NA
Location:  40.16°N, 87.63°W
Report Text: KDNV 211055Z AUTO 31003KT 7SM OVC048 09/08 A3003 RMK AO2 T00900079
Loading
Personal Weather Stations






























Interactive Weather Map
Tropical Storm Tracking
New forecast layout! Learn more

10-Day Weather Forecast

Advertisements
Track Severe Weather on mobile